sensor_id;sensor_type;location;lat;lon;timestamp;temperature;humidity
23755;DHT22;12057;52.042;6.830;2022-12-07T00:03:38;4.70;99.90
23755;DHT22;12057;52.042;6.830;2022-12-07T00:08:40;4.70;99.90
23755;DHT22;12057;52.042;6.830;2022-12-07T00:13:41;4.70;99.90
23755;DHT22;12057;52.042;6.830;2022-12-07T00:18:42;4.60;99.90
23755;DHT22;12057;52.042;6.830;2022-12-07T00:23:44;4.60;99.90
23755;DHT22;12057;52.042;6.830;2022-12-07T00:28:56;4.60;99.90
23755;DHT22;12057;52.042;6.830;2022-12-07T00:33:57;4.50;99.90
23755;DHT22;12057;52.042;6.830;2022-12-07T00:39:00;4.50;99.90
23755;DHT22;12057;52.042;6.830;2022-12-07T00:44:00;4.50;99.90
23755;DHT22;12057;52.042;6.830;2022-12-07T00:49:01;4.50;99.90
23755;DHT22;12057;52.042;6.830;2022-12-07T00:54:02;4.50;99.90
23755;DHT22;12057;52.042;6.830;2022-12-07T00:59:04;4.40;99.90
23755;DHT22;12057;52.042;6.830;2022-12-07T01:04:05;4.30;99.90
23755;DHT22;12057;52.042;6.830;2022-12-07T01:09:05;4.30;99.90
23755;DHT22;12057;52.042;6.830;2022-12-07T01:14:06;4.20;99.90
23755;DHT22;12057;52.042;6.830;2022-12-07T01:19:07;4.10;99.90
23755;DHT22;12057;52.042;6.830;2022-12-07T01:24:10;4.50;99.90
23755;DHT22;12057;52.042;6.830;2022-12-07T01:29:11;4.00;99.90
23755;DHT22;12057;52.042;6.830;2022-12-07T01:34:11;3.90;99.90
23755;DHT22;12057;52.042;6.830;2022-12-07T01:39:12;3.80;99.90
23755;DHT22;12057;52.042;6.830;2022-12-07T01:44:28;3.80;99.90
23755;DHT22;12057;52.042;6.830;2022-12-07T01:49:45;3.70;99.90
23755;DHT22;12057;52.042;6.830;2022-12-07T01:54:47;3.70;99.90
23755;DHT22;12057;52.042;6.830;2022-12-07T01:59:51;3.60;99.90
23755;DHT22;12057;52.042;6.830;2022-12-07T02:04:54;3.50;99.90
23755;DHT22;12057;52.042;6.830;2022-12-07T02:09:56;3.40;99.90
23755;DHT22;12057;52.042;6.830;2022-12-07T02:14:56;3.30;99.90
23755;DHT22;12057;52.042;6.830;2022-12-07T02:20:23;3.20;99.90
23755;DHT22;12057;52.042;6.830;2022-12-07T02:30:52;3.10;99.90
23755;DHT22;12057;52.042;6.830;2022-12-07T02:36:16;3.00;99.90
23755;DHT22;12057;52.042;6.830;2022-12-07T02:41:24;3.00;99.90
23755;DHT22;12057;52.042;6.830;2022-12-07T02:46:37;2.90;99.90
23755;DHT22;12057;52.042;6.830;2022-12-07T02:51:44;2.80;99.90
23755;DHT22;12057;52.042;6.830;2022-12-07T03:12:46;2.70;99.90
23755;DHT22;12057;52.042;6.830;2022-12-07T03:17:53;2.60;99.90
23755;DHT22;12057;52.042;6.830;2022-12-07T03:22:55;2.60;99.90
23755;DHT22;12057;52.042;6.830;2022-12-07T03:28:03;2.70;99.90
23755;DHT22;12057;52.042;6.830;2022-12-07T03:33:27;2.70;99.90
23755;DHT22;12057;52.042;6.830;2022-12-07T03:38:40;2.70;99.90
23755;DHT22;12057;52.042;6.830;2022-12-07T03:43:43;2.70;99.90
23755;DHT22;12057;52.042;6.830;2022-12-07T03:54:21;2.60;99.90
23755;DHT22;12057;52.042;6.830;2022-12-07T03:59:24;2.60;99.90
23755;DHT22;12057;52.042;6.830;2022-12-07T04:04:25;2.60;99.90
23755;DHT22;12057;52.042;6.830;2022-12-07T04:09:26;2.70;99.90
23755;DHT22;12057;52.042;6.830;2022-12-07T04:14:27;2.60;99.90
23755;DHT22;12057;52.042;6.830;2022-12-07T04:19:30;2.60;99.90
23755;DHT22;12057;52.042;6.830;2022-12-07T04:24:32;2.60;99.90
23755;DHT22;12057;52.042;6.830;2022-12-07T04:29:33;2.70;99.90
23755;DHT22;12057;52.042;6.830;2022-12-07T04:34:34;2.70;99.90
23755;DHT22;12057;52.042;6.830;2022-12-07T04:39:35;2.80;99.90
23755;DHT22;12057;52.042;6.830;2022-12-07T04:44:36;2.80;99.90
23755;DHT22;12057;52.042;6.830;2022-12-07T04:49:37;2.90;99.90
23755;DHT22;12057;52.042;6.830;2022-12-07T04:54:38;3.00;99.90
23755;DHT22;12057;52.042;6.830;2022-12-07T04:59:38;2.90;99.90
23755;DHT22;12057;52.042;6.830;2022-12-07T05:04:39;2.90;99.90
23755;DHT22;12057;52.042;6.830;2022-12-07T05:09:40;2.90;99.90
23755;DHT22;12057;52.042;6.830;2022-12-07T05:14:40;2.90;99.90
23755;DHT22;12057;52.042;6.830;2022-12-07T05:19:44;2.90;99.90
23755;DHT22;12057;52.042;6.830;2022-12-07T05:24:45;2.80;99.90
23755;DHT22;12057;52.042;6.830;2022-12-07T05:29:46;2.80;99.90
23755;DHT22;12057;52.042;6.830;2022-12-07T05:34:46;2.80;99.90
23755;DHT22;12057;52.042;6.830;2022-12-07T05:39:47;2.80;99.90
23755;DHT22;12057;52.042;6.830;2022-12-07T05:44:48;2.80;99.90
23755;DHT22;12057;52.042;6.830;2022-12-07T05:49:49;2.90;99.90
23755;DHT22;12057;52.042;6.830;2022-12-07T05:54:50;2.90;99.90
23755;DHT22;12057;52.042;6.830;2022-12-07T05:59:50;2.80;99.90
23755;DHT22;12057;52.042;6.830;2022-12-07T06:04:51;2.70;99.90
23755;DHT22;12057;52.042;6.830;2022-12-07T06:09:52;2.70;99.90
23755;DHT22;12057;52.042;6.830;2022-12-07T06:14:53;2.60;99.90
23755;DHT22;12057;52.042;6.830;2022-12-07T06:19:53;2.50;99.90
23755;DHT22;12057;52.042;6.830;2022-12-07T06:24:54;2.50;99.90
23755;DHT22;12057;52.042;6.830;2022-12-07T06:29:55;2.60;99.90
23755;DHT22;12057;52.042;6.830;2022-12-07T06:34:56;2.60;99.90
23755;DHT22;12057;52.042;6.830;2022-12-07T06:39:56;2.50;99.90
23755;DHT22;12057;52.042;6.830;2022-12-07T06:44:57;2.50;99.90
23755;DHT22;12057;52.042;6.830;2022-12-07T06:50:04;2.50;99.90
23755;DHT22;12057;52.042;6.830;2022-12-07T06:55:06;2.50;99.90
23755;DHT22;12057;52.042;6.830;2022-12-07T07:00:07;2.50;99.90
23755;DHT22;12057;52.042;6.830;2022-12-07T07:05:08;2.50;99.90
23755;DHT22;12057;52.042;6.830;2022-12-07T07:10:09;2.40;99.90
23755;DHT22;12057;52.042;6.830;2022-12-07T07:15:10;2.40;99.90
23755;DHT22;12057;52.042;6.830;2022-12-07T07:20:13;2.40;99.90
23755;DHT22;12057;52.042;6.830;2022-12-07T07:25:14;2.30;99.90
23755;DHT22;12057;52.042;6.830;2022-12-07T07:30:15;2.20;99.90
23755;DHT22;12057;52.042;6.830;2022-12-07T07:35:16;2.10;99.90
23755;DHT22;12057;52.042;6.830;2022-12-07T07:40:17;2.10;99.90
23755;DHT22;12057;52.042;6.830;2022-12-07T07:45:18;2.50;99.90
23755;DHT22;12057;52.042;6.830;2022-12-07T07:50:20;2.10;99.90
23755;DHT22;12057;52.042;6.830;2022-12-07T07:55:21;2.10;99.90
23755;DHT22;12057;52.042;6.830;2022-12-07T08:00:22;2.20;99.90
23755;DHT22;12057;52.042;6.830;2022-12-07T08:05:23;2.30;99.90
23755;DHT22;12057;52.042;6.830;2022-12-07T08:10:24;2.40;99.90
23755;DHT22;12057;52.042;6.830;2022-12-07T08:15:26;2.50;99.90
23755;DHT22;12057;52.042;6.830;2022-12-07T08:20:30;2.70;99.90
23755;DHT22;12057;52.042;6.830;2022-12-07T08:25:31;2.80;99.90
23755;DHT22;12057;52.042;6.830;2022-12-07T08:30:32;2.60;99.90
23755;DHT22;12057;52.042;6.830;2022-12-07T08:35:33;2.90;99.90
23755;DHT22;12057;52.042;6.830;2022-12-07T08:40:34;2.90;99.90
23755;DHT22;12057;52.042;6.830;2022-12-07T08:45:35;2.90;99.90
23755;DHT22;12057;52.042;6.830;2022-12-07T08:50:37;2.90;99.90
23755;DHT22;12057;52.042;6.830;2022-12-07T08:55:38;3.10;99.90
23755;DHT22;12057;52.042;6.830;2022-12-07T09:00:39;3.30;99.90
23755;DHT22;12057;52.042;6.830;2022-12-07T09:05:40;3.60;99.90
23755;DHT22;12057;52.042;6.830;2022-12-07T09:10:43;3.70;99.90
23755;DHT22;12057;52.042;6.830;2022-12-07T09:15:44;4.00;99.90
23755;DHT22;12057;52.042;6.830;2022-12-07T09:20:45;4.30;99.90
23755;DHT22;12057;52.042;6.830;2022-12-07T09:25:46;4.60;99.90
23755;DHT22;12057;52.042;6.830;2022-12-07T09:30:48;4.50;99.90
23755;DHT22;12057;52.042;6.830;2022-12-07T09:35:50;4.50;99.90
23755;DHT22;12057;52.042;6.830;2022-12-07T09:40:52;4.50;99.90
23755;DHT22;12057;52.042;6.830;2022-12-07T09:45:55;4.50;99.90
23755;DHT22;12057;52.042;6.830;2022-12-07T09:50:58;4.70;99.90
23755;DHT22;12057;52.042;6.830;2022-12-07T09:56:01;4.90;99.90
23755;DHT22;12057;52.042;6.830;2022-12-07T10:06:11;4.80;99.90
23755;DHT22;12057;52.042;6.830;2022-12-07T10:11:13;4.90;99.90
23755;DHT22;12057;52.042;6.830;2022-12-07T10:16:39;5.10;99.90
23755;DHT22;12057;52.042;6.830;2022-12-07T10:26:59;5.50;99.90
23755;DHT22;12057;52.042;6.830;2022-12-07T10:42:23;5.90;99.90
23755;DHT22;12057;52.042;6.830;2022-12-07T10:47:38;6.00;99.90
23755;DHT22;12057;52.042;6.830;2022-12-07T10:58:31;6.50;99.90
23755;DHT22;12057;52.042;6.830;2022-12-07T11:14:44;6.80;99.90
23755;DHT22;12057;52.042;6.830;2022-12-07T11:36:16;6.70;99.90
23755;DHT22;12057;52.042;6.830;2022-12-07T11:41:28;6.60;99.90
23755;DHT22;12057;52.042;6.830;2022-12-07T11:46:47;6.70;99.90
23755;DHT22;12057;52.042;6.830;2022-12-07T11:51:52;6.70;99.90
23755;DHT22;12057;52.042;6.830;2022-12-07T11:57:01;6.80;99.90
23755;DHT22;12057;52.042;6.830;2022-12-07T12:02:16;6.80;99.90
23755;DHT22;12057;52.042;6.830;2022-12-07T12:07:23;6.70;99.90
23755;DHT22;12057;52.042;6.830;2022-12-07T12:13:31;6.60;99.90
23755;DHT22;12057;52.042;6.830;2022-12-07T12:18:34;6.60;99.90
23755;DHT22;12057;52.042;6.830;2022-12-07T12:23:51;6.50;99.90
23755;DHT22;12057;52.042;6.830;2022-12-07T12:29:40;6.30;99.90
23755;DHT22;12057;52.042;6.830;2022-12-07T12:34:30;6.20;99.90
23755;DHT22;12057;52.042;6.830;2022-12-07T12:39:31;6.30;99.90
23755;DHT22;12057;52.042;6.830;2022-12-07T12:44:39;6.70;99.90
23755;DHT22;12057;52.042;6.830;2022-12-07T12:49:41;6.90;99.90
23755;DHT22;12057;52.042;6.830;2022-12-07T12:55:13;7.00;99.90
23755;DHT22;12057;52.042;6.830;2022-12-07T13:00:22;7.10;99.90
23755;DHT22;12057;52.042;6.830;2022-12-07T13:05:27;6.90;99.90
23755;DHT22;12057;52.042;6.830;2022-12-07T13:15:42;6.70;99.90
23755;DHT22;12057;52.042;6.830;2022-12-07T13:20:48;6.70;99.90
23755;DHT22;12057;52.042;6.830;2022-12-07T13:36:48;6.70;99.90
23755;DHT22;12057;52.042;6.830;2022-12-07T13:41:57;6.70;99.90
23755;DHT22;12057;52.042;6.830;2022-12-07T13:52:18;6.60;99.90
23755;DHT22;12057;52.042;6.830;2022-12-07T13:57:19;6.60;99.90
23755;DHT22;12057;52.042;6.830;2022-12-07T14:02:26;6.70;99.90
23755;DHT22;12057;52.042;6.830;2022-12-07T14:07:28;6.70;99.90
23755;DHT22;12057;52.042;6.830;2022-12-07T14:12:30;6.60;99.90
23755;DHT22;12057;52.042;6.830;2022-12-07T14:17:31;6.60;99.90
23755;DHT22;12057;52.042;6.830;2022-12-07T14:22:34;6.70;99.90
23755;DHT22;12057;52.042;6.830;2022-12-07T14:27:35;6.60;99.90
23755;DHT22;12057;52.042;6.830;2022-12-07T14:32:37;6.70;99.90
23755;DHT22;12057;52.042;6.830;2022-12-07T14:37:39;6.70;99.90
23755;DHT22;12057;52.042;6.830;2022-12-07T14:42:41;6.60;99.90
23755;DHT22;12057;52.042;6.830;2022-12-07T14:47:45;6.50;99.90
23755;DHT22;12057;52.042;6.830;2022-12-07T14:52:56;6.50;99.90
23755;DHT22;12057;52.042;6.830;2022-12-07T14:58:00;6.30;99.90
23755;DHT22;12057;52.042;6.830;2022-12-07T15:03:01;6.30;99.90
23755;DHT22;12057;52.042;6.830;2022-12-07T15:08:02;6.20;99.90
23755;DHT22;12057;52.042;6.830;2022-12-07T15:13:03;6.10;99.90
23755;DHT22;12057;52.042;6.830;2022-12-07T15:18:24;6.10;99.90
23755;DHT22;12057;52.042;6.830;2022-12-07T15:23:24;6.00;99.90
23755;DHT22;12057;52.042;6.830;2022-12-07T15:28:25;6.00;99.90
23755;DHT22;12057;52.042;6.830;2022-12-07T15:33:26;5.90;99.90
23755;DHT22;12057;52.042;6.830;2022-12-07T15:38:27;5.90;99.90
23755;DHT22;12057;52.042;6.830;2022-12-07T15:43:29;5.90;99.90
23755;DHT22;12057;52.042;6.830;2022-12-07T15:48:48;5.80;99.90
23755;DHT22;12057;52.042;6.830;2022-12-07T15:53:49;5.80;99.90
23755;DHT22;12057;52.042;6.830;2022-12-07T15:58:50;5.70;99.90
23755;DHT22;12057;52.042;6.830;2022-12-07T16:03:50;5.70;99.90
23755;DHT22;12057;52.042;6.830;2022-12-07T16:08:51;5.60;99.90
23755;DHT22;12057;52.042;6.830;2022-12-07T16:13:52;5.60;99.90
23755;DHT22;12057;52.042;6.830;2022-12-07T16:18:53;5.50;99.90
23755;DHT22;12057;52.042;6.830;2022-12-07T16:23:57;5.40;99.90
23755;DHT22;12057;52.042;6.830;2022-12-07T16:28:58;5.40;99.90
23755;DHT22;12057;52.042;6.830;2022-12-07T16:33:59;5.30;99.90
23755;DHT22;12057;52.042;6.830;2022-12-07T16:39:03;5.20;99.90
23755;DHT22;12057;52.042;6.830;2022-12-07T16:44:13;5.20;99.90
23755;DHT22;12057;52.042;6.830;2022-12-07T16:49:17;5.10;99.90
23755;DHT22;12057;52.042;6.830;2022-12-07T16:54:21;5.10;99.90
23755;DHT22;12057;52.042;6.830;2022-12-07T16:59:22;5.00;99.90
23755;DHT22;12057;52.042;6.830;2022-12-07T17:04:23;4.90;99.90
23755;DHT22;12057;52.042;6.830;2022-12-07T17:09:24;4.90;99.90
23755;DHT22;12057;52.042;6.830;2022-12-07T17:14:25;4.90;99.90
23755;DHT22;12057;52.042;6.830;2022-12-07T17:19:47;4.80;99.90
23755;DHT22;12057;52.042;6.830;2022-12-07T17:24:48;4.80;99.90
23755;DHT22;12057;52.042;6.830;2022-12-07T17:29:48;4.80;99.90
23755;DHT22;12057;52.042;6.830;2022-12-07T17:34:49;4.80;99.90
23755;DHT22;12057;52.042;6.830;2022-12-07T17:39:51;4.70;99.90
23755;DHT22;12057;52.042;6.830;2022-12-07T17:44:52;4.70;99.90
23755;DHT22;12057;52.042;6.830;2022-12-07T17:49:53;4.70;99.90
23755;DHT22;12057;52.042;6.830;2022-12-07T17:54:55;4.70;99.90
23755;DHT22;12057;52.042;6.830;2022-12-07T17:59:58;4.70;99.90
23755;DHT22;12057;52.042;6.830;2022-12-07T18:04:59;4.70;99.90
23755;DHT22;12057;52.042;6.830;2022-12-07T18:10:01;4.70;99.90
23755;DHT22;12057;52.042;6.830;2022-12-07T18:15:02;4.70;99.90
23755;DHT22;12057;52.042;6.830;2022-12-07T18:20:04;4.70;99.90
23755;DHT22;12057;52.042;6.830;2022-12-07T18:25:12;4.70;99.90
23755;DHT22;12057;52.042;6.830;2022-12-07T18:30:14;4.70;99.90
23755;DHT22;12057;52.042;6.830;2022-12-07T18:35:22;4.70;99.90
23755;DHT22;12057;52.042;6.830;2022-12-07T18:40:27;4.70;99.90
23755;DHT22;12057;52.042;6.830;2022-12-07T18:45:41;4.60;99.90
23755;DHT22;12057;52.042;6.830;2022-12-07T18:50:59;4.50;99.90
23755;DHT22;12057;52.042;6.830;2022-12-07T18:56:13;4.50;99.90
23755;DHT22;12057;52.042;6.830;2022-12-07T19:01:17;4.40;99.90
23755;DHT22;12057;52.042;6.830;2022-12-07T19:06:22;4.30;99.90
23755;DHT22;12057;52.042;6.830;2022-12-07T19:11:33;4.30;99.90
23755;DHT22;12057;52.042;6.830;2022-12-07T19:16:59;4.20;99.90
23755;DHT22;12057;52.042;6.830;2022-12-07T19:22:06;4.20;99.90
23755;DHT22;12057;52.042;6.830;2022-12-07T19:27:09;4.20;99.90
23755;DHT22;12057;52.042;6.830;2022-12-07T19:32:17;4.20;99.90
23755;DHT22;12057;52.042;6.830;2022-12-07T19:37:31;4.20;99.90
23755;DHT22;12057;52.042;6.830;2022-12-07T19:42:32;4.20;99.90
23755;DHT22;12057;52.042;6.830;2022-12-07T19:47:35;4.20;99.90
23755;DHT22;12057;52.042;6.830;2022-12-07T19:52:35;4.10;99.90
23755;DHT22;12057;52.042;6.830;2022-12-07T19:57:36;4.10;99.90
23755;DHT22;12057;52.042;6.830;2022-12-07T20:02:37;4.10;99.90
23755;DHT22;12057;52.042;6.830;2022-12-07T20:07:38;4.10;99.90
23755;DHT22;12057;52.042;6.830;2022-12-07T20:12:38;4.10;99.90
23755;DHT22;12057;52.042;6.830;2022-12-07T20:17:58;4.10;99.90
23755;DHT22;12057;52.042;6.830;2022-12-07T20:22:58;4.10;99.90
23755;DHT22;12057;52.042;6.830;2022-12-07T20:27:59;4.10;99.90
23755;DHT22;12057;52.042;6.830;2022-12-07T20:33:00;4.10;99.90
23755;DHT22;12057;52.042;6.830;2022-12-07T20:38:01;4.10;99.90
23755;DHT22;12057;52.042;6.830;2022-12-07T20:43:02;4.10;99.90
23755;DHT22;12057;52.042;6.830;2022-12-07T20:48:03;4.10;99.90
23755;DHT22;12057;52.042;6.830;2022-12-07T20:53:04;4.10;99.90
23755;DHT22;12057;52.042;6.830;2022-12-07T20:58:08;4.00;99.90
23755;DHT22;12057;52.042;6.830;2022-12-07T21:03:10;4.00;99.90
23755;DHT22;12057;52.042;6.830;2022-12-07T21:08:10;4.00;99.90
23755;DHT22;12057;52.042;6.830;2022-12-07T21:13:11;4.00;99.90
23755;DHT22;12057;52.042;6.830;2022-12-07T21:18:12;4.00;99.90
23755;DHT22;12057;52.042;6.830;2022-12-07T21:23:13;4.10;99.90
23755;DHT22;12057;52.042;6.830;2022-12-07T21:28:14;4.00;99.90
23755;DHT22;12057;52.042;6.830;2022-12-07T21:33:15;4.10;99.90
23755;DHT22;12057;52.042;6.830;2022-12-07T21:38:15;4.00;99.90
23755;DHT22;12057;52.042;6.830;2022-12-07T21:43:16;4.00;99.90
23755;DHT22;12057;52.042;6.830;2022-12-07T21:48:17;3.90;99.90
23755;DHT22;12057;52.042;6.830;2022-12-07T21:53:18;3.90;99.90
23755;DHT22;12057;52.042;6.830;2022-12-07T21:58:18;3.90;99.90
23755;DHT22;12057;52.042;6.830;2022-12-07T22:03:20;3.90;99.90
23755;DHT22;12057;52.042;6.830;2022-12-07T22:08:21;3.90;99.90
23755;DHT22;12057;52.042;6.830;2022-12-07T22:13:22;3.90;99.90
23755;DHT22;12057;52.042;6.830;2022-12-07T22:18:43;3.90;99.90
23755;DHT22;12057;52.042;6.830;2022-12-07T22:23:43;3.90;99.90
23755;DHT22;12057;52.042;6.830;2022-12-07T22:28:44;3.90;99.90
23755;DHT22;12057;52.042;6.830;2022-12-07T22:33:45;3.90;99.90
23755;DHT22;12057;52.042;6.830;2022-12-07T22:38:46;3.90;99.90
23755;DHT22;12057;52.042;6.830;2022-12-07T22:43:47;4.00;99.90
23755;DHT22;12057;52.042;6.830;2022-12-07T22:48:48;3.90;99.90
23755;DHT22;12057;52.042;6.830;2022-12-07T22:53:49;3.90;99.90
23755;DHT22;12057;52.042;6.830;2022-12-07T22:58:50;4.00;99.90
23755;DHT22;12057;52.042;6.830;2022-12-07T23:03:51;4.00;99.90
23755;DHT22;12057;52.042;6.830;2022-12-07T23:08:52;3.90;99.90
23755;DHT22;12057;52.042;6.830;2022-12-07T23:13:55;3.90;99.90
23755;DHT22;12057;52.042;6.830;2022-12-07T23:18:56;3.80;99.90
23755;DHT22;12057;52.042;6.830;2022-12-07T23:23:56;3.80;99.90
23755;DHT22;12057;52.042;6.830;2022-12-07T23:28:57;3.70;99.90
23755;DHT22;12057;52.042;6.830;2022-12-07T23:33:58;3.60;99.90
23755;DHT22;12057;52.042;6.830;2022-12-07T23:38:59;3.50;99.90
23755;DHT22;12057;52.042;6.830;2022-12-07T23:44:00;3.40;99.90
23755;DHT22;12057;52.042;6.830;2022-12-07T23:49:01;3.40;99.90
23755;DHT22;12057;52.042;6.830;2022-12-07T23:54:02;3.30;99.90
23755;DHT22;12057;52.042;6.830;2022-12-07T23:59:04;3.20;99.90
